Winter Harbor, ME (04693)

2:26 AM EDT on August 29, 2016 (GMT -0400)
WHUD | | Change Station

Elev 16 ft 44.39 °N, 68.09 °W | Updated 1 minute ago

Overcast
Overcast
61.2 °F
Feels Like 61.2 °F
N
2.0
Wind Variable Wind from WSW
Gusts 2.0 mph

Today
High -- | Low -- °F
--% Chance of Precip.
Yesterday
High -- | Low -- °F
Precip. -- in
Pressure 30.06 in
Visibility 10.0 miles
Clouds Overcast 1300 ft
Dew Point 60 °F
Humidity 97%
Rainfall 0.00 in
Snow Depth Not available.
5:52 AM 7:13 PM
Waning Crescent, 10% visible
SPECI KBHB 290621Z AUTO 20014KT 10SM OVC013 18/17 A3006 RMK AO2
Pressure 30.06 in
Visibility 10.0 miles
Clouds Overcast 1300 ft
Dew Point 60 °F
Humidity 97%
Rainfall 0.00 in
Snow Depth Not available.
5:52 AM 7:13 PM
Waning Crescent, 10% visible
SPECI KBHB 290621Z AUTO 20014KT 10SM OVC013 18/17 A3006 RMK AO2

10-Day Weather Forecast

Almanac

Astronomy

Aug. 29, 2016 Rise Set
Actual Time
Civil Twilight
Nautical Twilight
Astronomical Twilight
Moon
Length of Visible Light
Length of Day
Tomorrow will be .
, % of the Moon is Illuminated

Today's Extremes

State Highs State Lows

Community

WunderPhotos

Upload Photos

1,935,800 photos uploaded!

WunderBlog® & News

Nearby

Air Quality

  Air Quality AQ Index Pollutant
Not available.

Snow Depth

Station Depth Elevation

Earthquake Activity

City Distance Mag. Time & Date
Minimum magnitude displayed is 2.5.

Coastal Water Temperatures

Place Temperature

Stations

Nearby Weather Stations

Station Location Temp. Windchill Dew Point Humidity Wind Precip. Elev Updated Type
                   

Watches & Warnings

There are currently no watches in effect.